sensor_id;sensor_type;location;lat;lon;timestamp;pressure;altitude;pressure_sealevel;temperature
49557;BMP280;35462;45.048;7.666;2024-03-17T00:03:37;99340.66;;;13.42
49557;BMP280;35462;45.048;7.666;2024-03-17T00:18:40;99339.81;;;13.32
49557;BMP280;35462;45.048;7.666;2024-03-17T00:33:43;99345.66;;;13.27
49557;BMP280;35462;45.048;7.666;2024-03-17T00:48:48;99347.56;;;13.14
49557;BMP280;35462;45.048;7.666;2024-03-17T01:03:51;99343.94;;;13.08
49557;BMP280;35462;45.048;7.666;2024-03-17T01:18:54;99334.91;;;13.02
49557;BMP280;35462;45.048;7.666;2024-03-17T01:33:57;99341.13;;;13.00
49557;BMP280;35462;45.048;7.666;2024-03-17T01:49:00;99330.91;;;12.82
49557;BMP280;35462;45.048;7.666;2024-03-17T02:04:03;99318.88;;;12.62
49557;BMP280;35462;45.048;7.666;2024-03-17T02:19:06;99325.75;;;12.47
49557;BMP280;35462;45.048;7.666;2024-03-17T02:34:09;99328.25;;;12.38
49557;BMP280;35462;45.048;7.666;2024-03-17T02:49:11;99323.09;;;12.31
49557;BMP280;35462;45.048;7.666;2024-03-17T03:04:16;99321.25;;;12.28
49557;BMP280;35462;45.048;7.666;2024-03-17T03:19:18;99313.53;;;12.18
49557;BMP280;35462;45.048;7.666;2024-03-17T03:34:21;99328.59;;;12.08
49557;BMP280;35462;45.048;7.666;2024-03-17T03:49:26;99339.97;;;11.96
49557;BMP280;35462;45.048;7.666;2024-03-17T04:04:29;99344.44;;;11.99
49557;BMP280;35462;45.048;7.666;2024-03-17T04:19:31;99358.13;;;12.01
49557;BMP280;35462;45.048;7.666;2024-03-17T04:34:34;99359.53;;;12.06
49557;BMP280;35462;45.048;7.666;2024-03-17T04:49:37;99359.63;;;12.02
49557;BMP280;35462;45.048;7.666;2024-03-17T05:04:39;99369.28;;;11.96
49557;BMP280;35462;45.048;7.666;2024-03-17T05:19:44;99389.59;;;11.90
49557;BMP280;35462;45.048;7.666;2024-03-17T05:34:47;99385.44;;;11.89
49557;BMP280;35462;45.048;7.666;2024-03-17T05:49:49;99399.66;;;11.83
49557;BMP280;35462;45.048;7.666;2024-03-17T06:04:52;99407.03;;;11.95
49557;BMP280;35462;45.048;7.666;2024-03-17T06:19:54;99418.75;;;12.17
49557;BMP280;35462;45.048;7.666;2024-03-17T06:34:57;99434.97;;;12.22
49557;BMP280;35462;45.048;7.666;2024-03-17T06:50:00;99447.69;;;12.34
49557;BMP280;35462;45.048;7.666;2024-03-17T07:05:03;99446.91;;;12.37
49557;BMP280;35462;45.048;7.666;2024-03-17T07:20:07;99474.41;;;12.50
49557;BMP280;35462;45.048;7.666;2024-03-17T07:35:11;99475.75;;;12.58
49557;BMP280;35462;45.048;7.666;2024-03-17T07:50:14;99468.16;;;12.56
49557;BMP280;35462;45.048;7.666;2024-03-17T08:05:16;99490.50;;;12.78
49557;BMP280;35462;45.048;7.666;2024-03-17T08:20:19;99476.06;;;12.92
49557;BMP280;35462;45.048;7.666;2024-03-17T08:35:22;99464.03;;;13.00
49557;BMP280;35462;45.048;7.666;2024-03-17T08:50:24;99474.69;;;13.15
49557;BMP280;35462;45.048;7.666;2024-03-17T09:05:27;99483.50;;;13.69
49557;BMP280;35462;45.048;7.666;2024-03-17T09:20:30;99487.50;;;14.64
49557;BMP280;35462;45.048;7.666;2024-03-17T09:35:33;99483.81;;;15.17
49557;BMP280;35462;45.048;7.666;2024-03-17T09:50:36;99459.16;;;14.88
49557;BMP280;35462;45.048;7.666;2024-03-17T10:05:39;99446.91;;;15.72
49557;BMP280;35462;45.048;7.666;2024-03-17T10:20:42;99473.09;;;15.90
49557;BMP280;35462;45.048;7.666;2024-03-17T10:35:44;99460.75;;;15.71
49557;BMP280;35462;45.048;7.666;2024-03-17T10:50:48;99425.22;;;15.97
49557;BMP280;35462;45.048;7.666;2024-03-17T11:05:52;99440.22;;;16.25
49557;BMP280;35462;45.048;7.666;2024-03-17T11:20:59;99428.03;;;16.86
49557;BMP280;35462;45.048;7.666;2024-03-17T11:36:31;99409.31;;;17.19
49557;BMP280;35462;45.048;7.666;2024-03-17T11:51:35;99391.78;;;17.32
49557;BMP280;35462;45.048;7.666;2024-03-17T12:06:37;99359.84;;;17.07
49557;BMP280;35462;45.048;7.666;2024-03-17T12:21:43;99353.84;;;17.53
49557;BMP280;35462;45.048;7.666;2024-03-17T12:36:47;99329.84;;;17.73
49557;BMP280;35462;45.048;7.666;2024-03-17T12:51:51;99315.97;;;17.89
49557;BMP280;35462;45.048;7.666;2024-03-17T13:06:54;99295.53;;;17.97
49557;BMP280;35462;45.048;7.666;2024-03-17T13:21:56;99279.59;;;18.08
49557;BMP280;35462;45.048;7.666;2024-03-17T13:37:01;99267.78;;;17.68
49557;BMP280;35462;45.048;7.666;2024-03-17T13:52:05;99244.66;;;17.99
49557;BMP280;35462;45.048;7.666;2024-03-17T14:07:08;99247.00;;;18.06
49557;BMP280;35462;45.048;7.666;2024-03-17T14:22:11;99220.78;;;17.92
49557;BMP280;35462;45.048;7.666;2024-03-17T14:37:13;99220.94;;;17.74
49557;BMP280;35462;45.048;7.666;2024-03-17T14:52:16;99195.22;;;17.73
49557;BMP280;35462;45.048;7.666;2024-03-17T15:07:19;99211.06;;;17.71
49557;BMP280;35462;45.048;7.666;2024-03-17T15:22:22;99170.03;;;17.39
49557;BMP280;35462;45.048;7.666;2024-03-17T15:37:24;99162.63;;;17.34
49557;BMP280;35462;45.048;7.666;2024-03-17T15:52:27;99174.06;;;17.43
49557;BMP280;35462;45.048;7.666;2024-03-17T16:07:32;99170.81;;;17.39
49557;BMP280;35462;45.048;7.666;2024-03-17T16:22:34;99131.88;;;17.02
49557;BMP280;35462;45.048;7.666;2024-03-17T16:37:38;99144.78;;;16.66
49557;BMP280;35462;45.048;7.666;2024-03-17T16:52:40;99151.22;;;16.60
49557;BMP280;35462;45.048;7.666;2024-03-17T17:07:43;99160.16;;;16.24
49557;BMP280;35462;45.048;7.666;2024-03-17T17:22:49;99166.13;;;16.28
49557;BMP280;35462;45.048;7.666;2024-03-17T17:37:51;99188.66;;;15.95
49557;BMP280;35462;45.048;7.666;2024-03-17T17:52:54;99194.63;;;15.90
49557;BMP280;35462;45.048;7.666;2024-03-17T18:07:56;99185.13;;;15.80
49557;BMP280;35462;45.048;7.666;2024-03-17T18:22:59;99200.59;;;15.58
49557;BMP280;35462;45.048;7.666;2024-03-17T18:38:04;99201.63;;;15.61
49557;BMP280;35462;45.048;7.666;2024-03-17T18:53:07;99180.00;;;15.37
49557;BMP280;35462;45.048;7.666;2024-03-17T19:08:10;99199.16;;;15.09
49557;BMP280;35462;45.048;7.666;2024-03-17T19:23:12;99208.19;;;15.03
49557;BMP280;35462;45.048;7.666;2024-03-17T19:38:15;99217.97;;;14.88
49557;BMP280;35462;45.048;7.666;2024-03-17T19:53:17;99219.84;;;14.78
49557;BMP280;35462;45.048;7.666;2024-03-17T20:08:20;99205.69;;;14.48
49557;BMP280;35462;45.048;7.666;2024-03-17T20:23:23;99200.38;;;14.57
49557;BMP280;35462;45.048;7.666;2024-03-17T20:38:26;99205.41;;;14.55
49557;BMP280;35462;45.048;7.666;2024-03-17T20:53:28;99174.31;;;14.27
49557;BMP280;35462;45.048;7.666;2024-03-17T21:08:31;99183.75;;;14.40
49557;BMP280;35462;45.048;7.666;2024-03-17T21:23:34;99178.69;;;14.33
49557;BMP280;35462;45.048;7.666;2024-03-17T21:38:36;99170.88;;;14.05
49557;BMP280;35462;45.048;7.666;2024-03-17T21:53:40;99162.63;;;13.78
49557;BMP280;35462;45.048;7.666;2024-03-17T22:08:44;99142.81;;;13.88
49557;BMP280;35462;45.048;7.666;2024-03-17T22:23:47;99138.13;;;13.80
49557;BMP280;35462;45.048;7.666;2024-03-17T22:38:50;99122.69;;;13.62
49557;BMP280;35462;45.048;7.666;2024-03-17T22:53:53;99118.69;;;13.45
49557;BMP280;35462;45.048;7.666;2024-03-17T23:08:56;99113.00;;;13.43
49557;BMP280;35462;45.048;7.666;2024-03-17T23:23:58;99101.81;;;13.23
49557;BMP280;35462;45.048;7.666;2024-03-17T23:39:01;99072.28;;;13.06
49557;BMP280;35462;45.048;7.666;2024-03-17T23:54:04;99061.16;;;12.95
